sensor_id;sensor_type;location;lat;lon;timestamp;temperature;humidity
10245;DHT22;5167;52.164;10.530;2023-06-04T00:00:10;14.50;5.00
10245;DHT22;5167;52.164;10.530;2023-06-04T00:02:40;14.50;5.00
10245;DHT22;5167;52.164;10.530;2023-06-04T00:05:06;14.40;5.00
10245;DHT22;5167;52.164;10.530;2023-06-04T00:07:31;14.30;5.00
10245;DHT22;5167;52.164;10.530;2023-06-04T00:10:00;14.30;5.00
10245;DHT22;5167;52.164;10.530;2023-06-04T00:12:28;14.30;5.00
10245;DHT22;5167;52.164;10.530;2023-06-04T00:14:54;14.20;5.00
10245;DHT22;5167;52.164;10.530;2023-06-04T00:17:20;14.20;5.00
10245;DHT22;5167;52.164;10.530;2023-06-04T00:19:45;14.20;5.00
10245;DHT22;5167;52.164;10.530;2023-06-04T00:22:11;14.10;5.00
10245;DHT22;5167;52.164;10.530;2023-06-04T00:24:43;14.10;5.00
10245;DHT22;5167;52.164;10.530;2023-06-04T00:27:09;14.20;5.00
10245;DHT22;5167;52.164;10.530;2023-06-04T00:29:35;14.00;5.00
10245;DHT22;5167;52.164;10.530;2023-06-04T00:32:04;13.90;5.00
10245;DHT22;5167;52.164;10.530;2023-06-04T00:34:30;13.90;5.00
10245;DHT22;5167;52.164;10.530;2023-06-04T00:36:56;13.90;5.00
10245;DHT22;5167;52.164;10.530;2023-06-04T00:39:25;13.90;5.00
10245;DHT22;5167;52.164;10.530;2023-06-04T00:41:59;13.90;5.00
10245;DHT22;5167;52.164;10.530;2023-06-04T00:44:28;13.90;5.00
10245;DHT22;5167;52.164;10.530;2023-06-04T00:47:00;13.80;5.00
10245;DHT22;5167;52.164;10.530;2023-06-04T00:49:29;13.80;5.00
10245;DHT22;5167;52.164;10.530;2023-06-04T00:51:57;13.80;5.00
10245;DHT22;5167;52.164;10.530;2023-06-04T00:54:26;13.70;5.00
10245;DHT22;5167;52.164;10.530;2023-06-04T00:56:54;13.70;5.00
10245;DHT22;5167;52.164;10.530;2023-06-04T00:59:21;13.60;5.00
10245;DHT22;5167;52.164;10.530;2023-06-04T01:01:56;13.60;5.00
10245;DHT22;5167;52.164;10.530;2023-06-04T01:04:44;13.60;5.00
10245;DHT22;5167;52.164;10.530;2023-06-04T01:07:18;13.40;5.00
10245;DHT22;5167;52.164;10.530;2023-06-04T01:09:45;13.40;5.00
10245;DHT22;5167;52.164;10.530;2023-06-04T01:12:11;13.30;5.00
10245;DHT22;5167;52.164;10.530;2023-06-04T01:14:40;13.30;5.00
10245;DHT22;5167;52.164;10.530;2023-06-04T01:17:41;13.30;5.00
10245;DHT22;5167;52.164;10.530;2023-06-04T01:26:03;13.10;5.00
10245;DHT22;5167;52.164;10.530;2023-06-04T01:28:33;13.10;5.00
10245;DHT22;5167;52.164;10.530;2023-06-04T01:30:59;13.10;5.00
10245;DHT22;5167;52.164;10.530;2023-06-04T01:33:27;13.00;5.00
10245;DHT22;5167;52.164;10.530;2023-06-04T01:35:53;13.00;5.00
10245;DHT22;5167;52.164;10.530;2023-06-04T01:38:18;13.00;5.00
10245;DHT22;5167;52.164;10.530;2023-06-04T01:40:45;13.00;5.00
10245;DHT22;5167;52.164;10.530;2023-06-04T01:43:11;12.90;5.00
10245;DHT22;5167;52.164;10.530;2023-06-04T01:45:37;12.90;5.00
10245;DHT22;5167;52.164;10.530;2023-06-04T01:48:04;12.80;5.00
10245;DHT22;5167;52.164;10.530;2023-06-04T01:50:29;12.80;5.00
10245;DHT22;5167;52.164;10.530;2023-06-04T01:52:56;12.80;5.00
10245;DHT22;5167;52.164;10.530;2023-06-04T01:55:22;12.80;5.00
10245;DHT22;5167;52.164;10.530;2023-06-04T01:57:50;12.70;5.00
10245;DHT22;5167;52.164;10.530;2023-06-04T02:00:16;12.70;5.00
10245;DHT22;5167;52.164;10.530;2023-06-04T02:02:43;12.70;5.00
10245;DHT22;5167;52.164;10.530;2023-06-04T02:05:09;12.70;5.00
10245;DHT22;5167;52.164;10.530;2023-06-04T02:07:39;12.60;5.00
10245;DHT22;5167;52.164;10.530;2023-06-04T02:10:09;12.60;5.00
10245;DHT22;5167;52.164;10.530;2023-06-04T02:12:55;12.60;5.00
10245;DHT22;5167;52.164;10.530;2023-06-04T02:15:40;12.50;5.00
10245;DHT22;5167;52.164;10.530;2023-06-04T02:18:19;12.50;5.00
10245;DHT22;5167;52.164;10.530;2023-06-04T02:20:48;12.50;5.00
10245;DHT22;5167;52.164;10.530;2023-06-04T02:23:16;12.50;5.00
10245;DHT22;5167;52.164;10.530;2023-06-04T02:25:43;12.40;5.00
10245;DHT22;5167;52.164;10.530;2023-06-04T02:28:12;12.30;5.00
10245;DHT22;5167;52.164;10.530;2023-06-04T02:30:38;12.40;5.00
10245;DHT22;5167;52.164;10.530;2023-06-04T02:33:04;12.30;5.00
10245;DHT22;5167;52.164;10.530;2023-06-04T02:35:30;12.30;5.00
10245;DHT22;5167;52.164;10.530;2023-06-04T02:37:56;12.30;5.00
10245;DHT22;5167;52.164;10.530;2023-06-04T02:40:26;12.20;5.00
10245;DHT22;5167;52.164;10.530;2023-06-04T02:42:55;12.20;5.00
10245;DHT22;5167;52.164;10.530;2023-06-04T02:45:22;12.20;5.00
10245;DHT22;5167;52.164;10.530;2023-06-04T02:47:48;12.10;5.00
10245;DHT22;5167;52.164;10.530;2023-06-04T02:50:14;12.10;5.00
10245;DHT22;5167;52.164;10.530;2023-06-04T02:52:41;12.00;5.00
10245;DHT22;5167;52.164;10.530;2023-06-04T02:55:07;11.90;5.00
10245;DHT22;5167;52.164;10.530;2023-06-04T02:57:34;11.90;5.00
10245;DHT22;5167;52.164;10.530;2023-06-04T03:00:01;11.90;5.00
10245;DHT22;5167;52.164;10.530;2023-06-04T03:02:26;11.80;5.00
10245;DHT22;5167;52.164;10.530;2023-06-04T03:04:53;11.80;5.00
10245;DHT22;5167;52.164;10.530;2023-06-04T03:07:20;11.80;5.00
10245;DHT22;5167;52.164;10.530;2023-06-04T03:09:48;11.80;5.00
10245;DHT22;5167;52.164;10.530;2023-06-04T03:12:14;11.60;5.00
10245;DHT22;5167;52.164;10.530;2023-06-04T03:14:40;11.70;5.00
10245;DHT22;5167;52.164;10.530;2023-06-04T03:17:06;11.70;5.00
10245;DHT22;5167;52.164;10.530;2023-06-04T03:19:40;11.60;5.00
10245;DHT22;5167;52.164;10.530;2023-06-04T03:22:07;11.60;5.00
10245;DHT22;5167;52.164;10.530;2023-06-04T03:24:38;11.60;5.00
10245;DHT22;5167;52.164;10.530;2023-06-04T03:27:04;11.60;5.00
10245;DHT22;5167;52.164;10.530;2023-06-04T03:29:34;11.50;5.00
10245;DHT22;5167;52.164;10.530;2023-06-04T03:32:00;11.50;5.00
10245;DHT22;5167;52.164;10.530;2023-06-04T03:34:26;11.50;5.00
10245;DHT22;5167;52.164;10.530;2023-06-04T03:36:53;11.40;5.00
10245;DHT22;5167;52.164;10.530;2023-06-04T03:39:19;11.40;5.00
10245;DHT22;5167;52.164;10.530;2023-06-04T03:41:45;11.40;5.00
10245;DHT22;5167;52.164;10.530;2023-06-04T03:44:17;11.30;5.00
10245;DHT22;5167;52.164;10.530;2023-06-04T03:46:44;11.30;5.00
10245;DHT22;5167;52.164;10.530;2023-06-04T03:49:10;11.30;5.00
10245;DHT22;5167;52.164;10.530;2023-06-04T03:51:40;11.20;5.00
10245;DHT22;5167;52.164;10.530;2023-06-04T03:54:06;11.20;5.00
10245;DHT22;5167;52.164;10.530;2023-06-04T03:56:32;11.20;5.00
10245;DHT22;5167;52.164;10.530;2023-06-04T03:58:58;11.20;5.00
10245;DHT22;5167;52.164;10.530;2023-06-04T04:01:23;11.20;5.00
10245;DHT22;5167;52.164;10.530;2023-06-04T04:03:50;11.20;5.00
10245;DHT22;5167;52.164;10.530;2023-06-04T04:06:16;11.20;5.00
10245;DHT22;5167;52.164;10.530;2023-06-04T04:08:42;11.20;5.00
10245;DHT22;5167;52.164;10.530;2023-06-04T04:11:13;11.20;5.00
10245;DHT22;5167;52.164;10.530;2023-06-04T04:13:39;11.30;5.00
10245;DHT22;5167;52.164;10.530;2023-06-04T04:16:05;11.30;5.00
10245;DHT22;5167;52.164;10.530;2023-06-04T04:18:35;11.30;5.00
10245;DHT22;5167;52.164;10.530;2023-06-04T04:21:03;11.30;5.00
10245;DHT22;5167;52.164;10.530;2023-06-04T04:23:29;11.30;5.00
10245;DHT22;5167;52.164;10.530;2023-06-04T04:25:55;11.30;5.00
10245;DHT22;5167;52.164;10.530;2023-06-04T04:28:26;11.30;5.00
10245;DHT22;5167;52.164;10.530;2023-06-04T04:30:58;11.40;5.00
10245;DHT22;5167;52.164;10.530;2023-06-04T04:33:25;11.40;5.00
10245;DHT22;5167;52.164;10.530;2023-06-04T04:35:51;11.40;5.00
10245;DHT22;5167;52.164;10.530;2023-06-04T04:38:24;11.50;5.00
10245;DHT22;5167;52.164;10.530;2023-06-04T04:40:50;11.60;5.00
10245;DHT22;5167;52.164;10.530;2023-06-04T04:43:28;12.10;5.00
10245;DHT22;5167;52.164;10.530;2023-06-04T04:45:53;12.70;5.00
10245;DHT22;5167;52.164;10.530;2023-06-04T04:48:19;12.90;5.00
10245;DHT22;5167;52.164;10.530;2023-06-04T04:50:45;12.90;5.00
10245;DHT22;5167;52.164;10.530;2023-06-04T04:53:11;13.00;5.00
10245;DHT22;5167;52.164;10.530;2023-06-04T04:55:36;12.90;5.00
10245;DHT22;5167;52.164;10.530;2023-06-04T04:58:02;12.90;5.00
10245;DHT22;5167;52.164;10.530;2023-06-04T05:00:28;13.10;5.00
10245;DHT22;5167;52.164;10.530;2023-06-04T05:02:54;13.30;5.00
10245;DHT22;5167;52.164;10.530;2023-06-04T05:05:20;13.30;5.00
10245;DHT22;5167;52.164;10.530;2023-06-04T05:07:45;13.30;5.00
10245;DHT22;5167;52.164;10.530;2023-06-04T05:10:11;13.20;5.00
10245;DHT22;5167;52.164;10.530;2023-06-04T05:12:38;13.20;5.00
10245;DHT22;5167;52.164;10.530;2023-06-04T05:15:04;13.10;5.00
10245;DHT22;5167;52.164;10.530;2023-06-04T05:17:29;13.10;5.00
10245;DHT22;5167;52.164;10.530;2023-06-04T05:19:56;13.10;5.00
10245;DHT22;5167;52.164;10.530;2023-06-04T05:22:37;13.10;5.00
10245;DHT22;5167;52.164;10.530;2023-06-04T05:25:06;13.10;5.00
10245;DHT22;5167;52.164;10.530;2023-06-04T05:27:33;13.10;5.00
10245;DHT22;5167;52.164;10.530;2023-06-04T05:29:59;13.20;5.00
10245;DHT22;5167;52.164;10.530;2023-06-04T05:32:26;13.20;5.00
10245;DHT22;5167;52.164;10.530;2023-06-04T05:34:54;13.20;5.00
10245;DHT22;5167;52.164;10.530;2023-06-04T05:37:27;13.30;5.00
10245;DHT22;5167;52.164;10.530;2023-06-04T05:39:54;13.30;5.00
10245;DHT22;5167;52.164;10.530;2023-06-04T05:42:20;13.40;5.00
10245;DHT22;5167;52.164;10.530;2023-06-04T05:44:46;13.60;5.00
10245;DHT22;5167;52.164;10.530;2023-06-04T05:47:12;13.70;5.00
10245;DHT22;5167;52.164;10.530;2023-06-04T05:49:37;13.80;5.00
10245;DHT22;5167;52.164;10.530;2023-06-04T05:52:03;13.80;5.00
10245;DHT22;5167;52.164;10.530;2023-06-04T05:54:29;13.90;5.00
10245;DHT22;5167;52.164;10.530;2023-06-04T05:56:55;14.10;5.00
10245;DHT22;5167;52.164;10.530;2023-06-04T05:59:21;14.30;5.00
10245;DHT22;5167;52.164;10.530;2023-06-04T06:01:47;14.80;5.00
10245;DHT22;5167;52.164;10.530;2023-06-04T06:04:13;15.20;5.00
10245;DHT22;5167;52.164;10.530;2023-06-04T06:06:39;15.60;5.00
10245;DHT22;5167;52.164;10.530;2023-06-04T06:09:05;16.00;5.00
10245;DHT22;5167;52.164;10.530;2023-06-04T06:11:32;16.40;5.00
10245;DHT22;5167;52.164;10.530;2023-06-04T06:13:57;16.70;5.00
10245;DHT22;5167;52.164;10.530;2023-06-04T06:16:23;17.00;5.00
10245;DHT22;5167;52.164;10.530;2023-06-04T06:18:48;17.30;5.00
10245;DHT22;5167;52.164;10.530;2023-06-04T06:21:14;17.40;5.00
10245;DHT22;5167;52.164;10.530;2023-06-04T06:23:40;17.60;5.00
10245;DHT22;5167;52.164;10.530;2023-06-04T06:26:05;17.80;5.00
10245;DHT22;5167;52.164;10.530;2023-06-04T06:28:34;17.90;5.00
10245;DHT22;5167;52.164;10.530;2023-06-04T06:31:01;18.00;5.00
10245;DHT22;5167;52.164;10.530;2023-06-04T06:33:27;18.10;5.00
10245;DHT22;5167;52.164;10.530;2023-06-04T06:35:53;18.20;5.00
10245;DHT22;5167;52.164;10.530;2023-06-04T06:38:18;18.30;5.00
10245;DHT22;5167;52.164;10.530;2023-06-04T06:40:44;18.40;5.00
10245;DHT22;5167;52.164;10.530;2023-06-04T06:43:10;18.50;5.00
10245;DHT22;5167;52.164;10.530;2023-06-04T06:45:36;18.60;5.00
10245;DHT22;5167;52.164;10.530;2023-06-04T06:48:01;18.80;5.00
10245;DHT22;5167;52.164;10.530;2023-06-04T06:50:27;18.90;5.00
10245;DHT22;5167;52.164;10.530;2023-06-04T06:52:53;19.00;5.00
10245;DHT22;5167;52.164;10.530;2023-06-04T06:55:18;19.10;5.00
10245;DHT22;5167;52.164;10.530;2023-06-04T06:57:44;19.30;5.00
10245;DHT22;5167;52.164;10.530;2023-06-04T07:00:10;19.50;5.00
10245;DHT22;5167;52.164;10.530;2023-06-04T07:02:36;19.60;5.00
10245;DHT22;5167;52.164;10.530;2023-06-04T07:05:02;19.80;5.00
10245;DHT22;5167;52.164;10.530;2023-06-04T07:07:28;20.00;5.00
10245;DHT22;5167;52.164;10.530;2023-06-04T07:09:53;20.10;5.00
10245;DHT22;5167;52.164;10.530;2023-06-04T07:12:19;20.20;5.00
10245;DHT22;5167;52.164;10.530;2023-06-04T07:14:45;20.30;5.00
10245;DHT22;5167;52.164;10.530;2023-06-04T07:17:11;20.40;5.00
10245;DHT22;5167;52.164;10.530;2023-06-04T07:19:36;20.50;5.00
10245;DHT22;5167;52.164;10.530;2023-06-04T07:22:02;20.50;5.00
10245;DHT22;5167;52.164;10.530;2023-06-04T07:24:28;20.60;5.00
10245;DHT22;5167;52.164;10.530;2023-06-04T07:26:53;20.60;5.00
10245;DHT22;5167;52.164;10.530;2023-06-04T07:29:19;20.70;5.00
10245;DHT22;5167;52.164;10.530;2023-06-04T07:31:44;20.80;5.00
10245;DHT22;5167;52.164;10.530;2023-06-04T07:34:10;20.90;5.00
10245;DHT22;5167;52.164;10.530;2023-06-04T07:36:36;21.10;5.00
10245;DHT22;5167;52.164;10.530;2023-06-04T07:39:02;21.30;5.00
10245;DHT22;5167;52.164;10.530;2023-06-04T07:41:30;21.40;5.00
10245;DHT22;5167;52.164;10.530;2023-06-04T07:43:55;21.50;5.00
10245;DHT22;5167;52.164;10.530;2023-06-04T07:46:21;21.70;5.00
10245;DHT22;5167;52.164;10.530;2023-06-04T07:48:47;21.80;5.00
10245;DHT22;5167;52.164;10.530;2023-06-04T07:51:13;21.90;5.00
10245;DHT22;5167;52.164;10.530;2023-06-04T07:53:38;21.90;5.00
10245;DHT22;5167;52.164;10.530;2023-06-04T07:56:05;22.00;5.00
10245;DHT22;5167;52.164;10.530;2023-06-04T07:58:30;22.00;5.00
10245;DHT22;5167;52.164;10.530;2023-06-04T08:00:56;22.10;5.00
10245;DHT22;5167;52.164;10.530;2023-06-04T08:03:22;22.20;5.00
10245;DHT22;5167;52.164;10.530;2023-06-04T08:05:48;22.40;5.00
10245;DHT22;5167;52.164;10.530;2023-06-04T08:08:14;22.50;5.00
10245;DHT22;5167;52.164;10.530;2023-06-04T08:10:40;22.70;5.00
10245;DHT22;5167;52.164;10.530;2023-06-04T08:13:06;22.70;5.00
10245;DHT22;5167;52.164;10.530;2023-06-04T08:15:31;22.80;5.00
10245;DHT22;5167;52.164;10.530;2023-06-04T08:17:57;22.90;5.00
10245;DHT22;5167;52.164;10.530;2023-06-04T08:20:23;22.80;5.00
10245;DHT22;5167;52.164;10.530;2023-06-04T08:22:49;22.80;5.00
10245;DHT22;5167;52.164;10.530;2023-06-04T08:25:15;22.90;5.00
10245;DHT22;5167;52.164;10.530;2023-06-04T08:27:41;23.00;5.00
10245;DHT22;5167;52.164;10.530;2023-06-04T08:30:08;23.00;5.00
10245;DHT22;5167;52.164;10.530;2023-06-04T08:32:34;23.20;5.00
10245;DHT22;5167;52.164;10.530;2023-06-04T08:35:00;23.30;5.00
10245;DHT22;5167;52.164;10.530;2023-06-04T08:37:25;23.40;5.00
10245;DHT22;5167;52.164;10.530;2023-06-04T08:39:51;23.50;5.00
10245;DHT22;5167;52.164;10.530;2023-06-04T08:42:41;23.60;5.00
10245;DHT22;5167;52.164;10.530;2023-06-04T08:45:11;23.80;5.00
10245;DHT22;5167;52.164;10.530;2023-06-04T08:47:44;23.80;5.00
10245;DHT22;5167;52.164;10.530;2023-06-04T08:50:10;24.10;5.00
10245;DHT22;5167;52.164;10.530;2023-06-04T08:52:37;24.20;5.00
10245;DHT22;5167;52.164;10.530;2023-06-04T08:55:04;24.30;5.00
10245;DHT22;5167;52.164;10.530;2023-06-04T08:57:31;24.40;5.00
10245;DHT22;5167;52.164;10.530;2023-06-04T08:59:56;24.50;5.00
10245;DHT22;5167;52.164;10.530;2023-06-04T09:02:22;24.60;5.00
10245;DHT22;5167;52.164;10.530;2023-06-04T09:04:49;24.60;5.00
10245;DHT22;5167;52.164;10.530;2023-06-04T09:07:16;24.50;5.00
10245;DHT22;5167;52.164;10.530;2023-06-04T09:09:45;24.50;5.00
10245;DHT22;5167;52.164;10.530;2023-06-04T09:12:20;24.60;5.00
10245;DHT22;5167;52.164;10.530;2023-06-04T09:14:48;24.60;5.00
10245;DHT22;5167;52.164;10.530;2023-06-04T09:17:24;24.70;5.00
10245;DHT22;5167;52.164;10.530;2023-06-04T09:19:51;24.70;5.00
10245;DHT22;5167;52.164;10.530;2023-06-04T09:22:17;24.80;5.00
10245;DHT22;5167;52.164;10.530;2023-06-04T09:24:44;24.90;5.00
10245;DHT22;5167;52.164;10.530;2023-06-04T09:27:15;24.90;5.00
10245;DHT22;5167;52.164;10.530;2023-06-04T09:29:52;24.90;5.00
10245;DHT22;5167;52.164;10.530;2023-06-04T09:32:26;25.00;5.00
10245;DHT22;5167;52.164;10.530;2023-06-04T09:35:12;24.90;5.00
10245;DHT22;5167;52.164;10.530;2023-06-04T09:37:39;24.80;5.00
10245;DHT22;5167;52.164;10.530;2023-06-04T09:40:05;24.70;5.00
10245;DHT22;5167;52.164;10.530;2023-06-04T09:42:42;24.80;5.00
10245;DHT22;5167;52.164;10.530;2023-06-04T09:45:08;25.00;5.00
10245;DHT22;5167;52.164;10.530;2023-06-04T09:47:43;25.10;5.00
10245;DHT22;5167;52.164;10.530;2023-06-04T09:50:11;25.10;5.00
10245;DHT22;5167;52.164;10.530;2023-06-04T09:52:37;25.20;5.00
10245;DHT22;5167;52.164;10.530;2023-06-04T09:55:16;25.30;5.00
10245;DHT22;5167;52.164;10.530;2023-06-04T09:57:48;25.50;5.00
10245;DHT22;5167;52.164;10.530;2023-06-04T10:00:17;25.40;5.00
10245;DHT22;5167;52.164;10.530;2023-06-04T10:02:46;25.50;5.00
10245;DHT22;5167;52.164;10.530;2023-06-04T10:05:13;25.50;5.00
10245;DHT22;5167;52.164;10.530;2023-06-04T10:07:44;25.50;5.00
10245;DHT22;5167;52.164;10.530;2023-06-04T10:10:19;25.60;5.00
10245;DHT22;5167;52.164;10.530;2023-06-04T10:12:52;25.70;5.00
10245;DHT22;5167;52.164;10.530;2023-06-04T10:15:19;25.80;5.00
10245;DHT22;5167;52.164;10.530;2023-06-04T10:17:47;25.90;5.00
10245;DHT22;5167;52.164;10.530;2023-06-04T10:20:14;26.00;5.00
10245;DHT22;5167;52.164;10.530;2023-06-04T10:22:39;26.10;5.00
10245;DHT22;5167;52.164;10.530;2023-06-04T10:25:06;26.20;5.00
10245;DHT22;5167;52.164;10.530;2023-06-04T10:27:32;26.20;5.00
10245;DHT22;5167;52.164;10.530;2023-06-04T10:30:01;26.20;5.00
10245;DHT22;5167;52.164;10.530;2023-06-04T10:32:29;26.20;5.00
10245;DHT22;5167;52.164;10.530;2023-06-04T10:34:54;26.20;5.00
10245;DHT22;5167;52.164;10.530;2023-06-04T10:37:25;26.20;5.00
10245;DHT22;5167;52.164;10.530;2023-06-04T10:39:52;26.30;5.00
10245;DHT22;5167;52.164;10.530;2023-06-04T10:42:18;26.30;5.00
10245;DHT22;5167;52.164;10.530;2023-06-04T10:44:50;26.20;5.00
10245;DHT22;5167;52.164;10.530;2023-06-04T10:47:24;26.20;5.00
10245;DHT22;5167;52.164;10.530;2023-06-04T10:49:51;26.20;5.00
10245;DHT22;5167;52.164;10.530;2023-06-04T10:52:17;26.30;5.00
10245;DHT22;5167;52.164;10.530;2023-06-04T10:54:45;26.30;5.00
10245;DHT22;5167;52.164;10.530;2023-06-04T10:57:16;26.30;5.00
10245;DHT22;5167;52.164;10.530;2023-06-04T10:59:56;26.30;5.00
10245;DHT22;5167;52.164;10.530;2023-06-04T11:02:22;26.30;5.00
10245;DHT22;5167;52.164;10.530;2023-06-04T11:05:08;26.30;5.00
10245;DHT22;5167;52.164;10.530;2023-06-04T11:07:46;26.20;5.00
10245;DHT22;5167;52.164;10.530;2023-06-04T11:10:13;26.30;5.00
10245;DHT22;5167;52.164;10.530;2023-06-04T11:12:48;26.20;5.00
10245;DHT22;5167;52.164;10.530;2023-06-04T11:15:18;26.20;5.00
10245;DHT22;5167;52.164;10.530;2023-06-04T11:17:54;26.20;5.00
10245;DHT22;5167;52.164;10.530;2023-06-04T11:20:22;26.20;5.00
10245;DHT22;5167;52.164;10.530;2023-06-04T11:22:55;26.30;5.00
10245;DHT22;5167;52.164;10.530;2023-06-04T11:25:25;26.20;5.00
10245;DHT22;5167;52.164;10.530;2023-06-04T11:27:53;26.30;5.00
10245;DHT22;5167;52.164;10.530;2023-06-04T11:30:19;26.30;5.00
10245;DHT22;5167;52.164;10.530;2023-06-04T11:32:45;26.20;5.00
10245;DHT22;5167;52.164;10.530;2023-06-04T11:35:11;26.30;5.00
10245;DHT22;5167;52.164;10.530;2023-06-04T11:37:38;26.30;5.00
10245;DHT22;5167;52.164;10.530;2023-06-04T11:40:18;26.30;5.00
10245;DHT22;5167;52.164;10.530;2023-06-04T11:42:47;26.20;5.00
10245;DHT22;5167;52.164;10.530;2023-06-04T11:45:16;26.30;5.00
10245;DHT22;5167;52.164;10.530;2023-06-04T11:47:48;26.30;5.00
10245;DHT22;5167;52.164;10.530;2023-06-04T11:50:14;26.20;5.00
10245;DHT22;5167;52.164;10.530;2023-06-04T11:52:41;26.20;5.00
10245;DHT22;5167;52.164;10.530;2023-06-04T11:55:09;26.10;5.00
10245;DHT22;5167;52.164;10.530;2023-06-04T11:57:36;26.00;5.00
10245;DHT22;5167;52.164;10.530;2023-06-04T12:00:07;26.00;5.00
10245;DHT22;5167;52.164;10.530;2023-06-04T12:02:48;25.90;5.00
10245;DHT22;5167;52.164;10.530;2023-06-04T12:05:14;25.90;5.00
10245;DHT22;5167;52.164;10.530;2023-06-04T12:07:41;25.80;5.00
10245;DHT22;5167;52.164;10.530;2023-06-04T12:10:11;25.70;5.00
10245;DHT22;5167;52.164;10.530;2023-06-04T12:12:38;25.70;5.00
10245;DHT22;5167;52.164;10.530;2023-06-04T12:15:06;25.70;5.00
10245;DHT22;5167;52.164;10.530;2023-06-04T12:17:32;25.70;5.00
10245;DHT22;5167;52.164;10.530;2023-06-04T12:19:58;25.80;5.00
10245;DHT22;5167;52.164;10.530;2023-06-04T12:22:24;25.70;5.00
10245;DHT22;5167;52.164;10.530;2023-06-04T12:24:54;25.70;5.00
10245;DHT22;5167;52.164;10.530;2023-06-04T12:27:22;25.60;5.00
10245;DHT22;5167;52.164;10.530;2023-06-04T12:30:04;25.40;5.00
10245;DHT22;5167;52.164;10.530;2023-06-04T12:32:35;25.40;5.00
10245;DHT22;5167;52.164;10.530;2023-06-04T12:35:02;25.30;5.00
10245;DHT22;5167;52.164;10.530;2023-06-04T12:37:29;25.30;5.00
10245;DHT22;5167;52.164;10.530;2023-06-04T12:39:57;25.30;5.00
10245;DHT22;5167;52.164;10.530;2023-06-04T12:42:29;25.30;5.00
10245;DHT22;5167;52.164;10.530;2023-06-04T12:44:55;25.20;5.00
10245;DHT22;5167;52.164;10.530;2023-06-04T12:47:21;25.30;5.00
10245;DHT22;5167;52.164;10.530;2023-06-04T12:49:46;25.30;5.00
10245;DHT22;5167;52.164;10.530;2023-06-04T12:52:12;25.20;5.00
10245;DHT22;5167;52.164;10.530;2023-06-04T12:54:42;25.20;5.00
10245;DHT22;5167;52.164;10.530;2023-06-04T12:57:08;25.20;5.00
10245;DHT22;5167;52.164;10.530;2023-06-04T12:59:33;25.30;5.00
10245;DHT22;5167;52.164;10.530;2023-06-04T13:01:59;25.30;5.00
10245;DHT22;5167;52.164;10.530;2023-06-04T13:04:25;25.30;5.00
10245;DHT22;5167;52.164;10.530;2023-06-04T13:06:51;25.30;5.00
10245;DHT22;5167;52.164;10.530;2023-06-04T13:09:18;25.40;5.00
10245;DHT22;5167;52.164;10.530;2023-06-04T13:11:46;25.50;5.00
10245;DHT22;5167;52.164;10.530;2023-06-04T13:14:11;25.50;5.00
10245;DHT22;5167;52.164;10.530;2023-06-04T13:16:40;25.60;5.00
10245;DHT22;5167;52.164;10.530;2023-06-04T13:19:06;25.50;5.00
10245;DHT22;5167;52.164;10.530;2023-06-04T13:21:32;25.60;5.00
10245;DHT22;5167;52.164;10.530;2023-06-04T13:23:58;25.50;5.00
10245;DHT22;5167;52.164;10.530;2023-06-04T13:26:23;25.50;5.00
10245;DHT22;5167;52.164;10.530;2023-06-04T13:28:49;25.40;5.00
10245;DHT22;5167;52.164;10.530;2023-06-04T13:31:15;25.40;5.00
10245;DHT22;5167;52.164;10.530;2023-06-04T13:33:42;25.40;5.00
10245;DHT22;5167;52.164;10.530;2023-06-04T13:36:07;25.40;5.00
10245;DHT22;5167;52.164;10.530;2023-06-04T13:38:33;25.40;5.00
10245;DHT22;5167;52.164;10.530;2023-06-04T13:40:59;25.50;5.00
10245;DHT22;5167;52.164;10.530;2023-06-04T13:43:25;25.50;5.00
10245;DHT22;5167;52.164;10.530;2023-06-04T13:45:50;25.50;5.00
10245;DHT22;5167;52.164;10.530;2023-06-04T13:48:16;25.40;5.00
10245;DHT22;5167;52.164;10.530;2023-06-04T13:50:42;25.40;5.00
10245;DHT22;5167;52.164;10.530;2023-06-04T13:53:11;25.30;5.00
10245;DHT22;5167;52.164;10.530;2023-06-04T13:55:38;25.30;5.00
10245;DHT22;5167;52.164;10.530;2023-06-04T13:58:04;25.30;5.00
10245;DHT22;5167;52.164;10.530;2023-06-04T14:00:30;25.30;5.00
10245;DHT22;5167;52.164;10.530;2023-06-04T14:02:56;25.30;5.00
10245;DHT22;5167;52.164;10.530;2023-06-04T14:05:22;25.20;5.00
10245;DHT22;5167;52.164;10.530;2023-06-04T14:07:48;25.20;5.00
10245;DHT22;5167;52.164;10.530;2023-06-04T14:10:14;25.10;5.00
10245;DHT22;5167;52.164;10.530;2023-06-04T14:12:40;25.10;5.00
10245;DHT22;5167;52.164;10.530;2023-06-04T14:15:07;25.20;5.00
10245;DHT22;5167;52.164;10.530;2023-06-04T14:17:34;25.10;5.00
10245;DHT22;5167;52.164;10.530;2023-06-04T14:20:03;25.20;5.00
10245;DHT22;5167;52.164;10.530;2023-06-04T14:22:35;25.10;5.00
10245;DHT22;5167;52.164;10.530;2023-06-04T14:25:06;25.10;5.00
10245;DHT22;5167;52.164;10.530;2023-06-04T14:27:33;25.10;5.00
10245;DHT22;5167;52.164;10.530;2023-06-04T14:29:59;25.10;5.00
10245;DHT22;5167;52.164;10.530;2023-06-04T14:32:24;25.20;5.00
10245;DHT22;5167;52.164;10.530;2023-06-04T14:34:50;25.10;5.00
10245;DHT22;5167;52.164;10.530;2023-06-04T14:37:16;25.10;5.00
10245;DHT22;5167;52.164;10.530;2023-06-04T14:39:42;25.10;5.00
10245;DHT22;5167;52.164;10.530;2023-06-04T14:42:07;25.10;5.00
10245;DHT22;5167;52.164;10.530;2023-06-04T14:44:33;25.10;5.00
10245;DHT22;5167;52.164;10.530;2023-06-04T14:46:59;25.00;5.00
10245;DHT22;5167;52.164;10.530;2023-06-04T14:49:25;25.00;5.00
10245;DHT22;5167;52.164;10.530;2023-06-04T14:51:50;25.00;5.00
10245;DHT22;5167;52.164;10.530;2023-06-04T14:54:16;25.00;5.00
10245;DHT22;5167;52.164;10.530;2023-06-04T14:56:42;25.10;5.00
10245;DHT22;5167;52.164;10.530;2023-06-04T14:59:07;25.00;5.00
10245;DHT22;5167;52.164;10.530;2023-06-04T15:01:37;25.10;5.00
10245;DHT22;5167;52.164;10.530;2023-06-04T15:04:04;25.10;5.00
10245;DHT22;5167;52.164;10.530;2023-06-04T15:06:30;25.00;5.00
10245;DHT22;5167;52.164;10.530;2023-06-04T15:08:55;25.00;5.00
10245;DHT22;5167;52.164;10.530;2023-06-04T15:11:21;24.90;5.00
10245;DHT22;5167;52.164;10.530;2023-06-04T15:13:46;24.90;5.00
10245;DHT22;5167;52.164;10.530;2023-06-04T15:16:12;24.80;5.00
10245;DHT22;5167;52.164;10.530;2023-06-04T15:18:38;24.90;5.00
10245;DHT22;5167;52.164;10.530;2023-06-04T15:21:03;24.80;5.00
10245;DHT22;5167;52.164;10.530;2023-06-04T15:23:29;24.90;5.00
10245;DHT22;5167;52.164;10.530;2023-06-04T15:25:54;24.90;5.00
10245;DHT22;5167;52.164;10.530;2023-06-04T15:28:20;25.00;5.00
10245;DHT22;5167;52.164;10.530;2023-06-04T15:30:46;24.90;5.00
10245;DHT22;5167;52.164;10.530;2023-06-04T15:33:11;25.00;5.00
10245;DHT22;5167;52.164;10.530;2023-06-04T15:35:37;24.90;5.00
10245;DHT22;5167;52.164;10.530;2023-06-04T15:38:02;25.00;5.00
10245;DHT22;5167;52.164;10.530;2023-06-04T15:40:28;24.90;5.00
10245;DHT22;5167;52.164;10.530;2023-06-04T15:42:53;25.00;5.00
10245;DHT22;5167;52.164;10.530;2023-06-04T15:45:19;25.00;5.00
10245;DHT22;5167;52.164;10.530;2023-06-04T15:47:50;25.00;5.00
10245;DHT22;5167;52.164;10.530;2023-06-04T15:50:16;25.00;5.00
10245;DHT22;5167;52.164;10.530;2023-06-04T15:52:41;25.00;5.00